Terminal Aerodrome Forecast
Issued by NWS

Home | Current Version | Previous Version | Text Only | Print | Product List | Glossary On
Versions: 1 2 3 4 5 6 7 8 9 10 11 12 13 14 15 16 17 18
736
FTAK31 PAJN 241741
TAFASI
TAF
PASI 241741Z 2418/2518 18010KT 6SM -SHRA SCT008 BKN015 OVC025
      TEMPO 2418/2422 18010G18KT 3SM -SHRA BR OVC008
     FM250300 16007KT P6SM VCSH SCT020 OVC040=

USA.gov is the U.S. government's official web portal to all federal, state and local government web resources and services.